createdAt,value
2023-05-21T00:00:12.919Z,101362.06
2023-05-21T00:02:43.075Z,101354.84
2023-05-21T00:05:14.824Z,101358.16
2023-05-21T00:07:44.041Z,101359.28
2023-05-21T00:10:12.804Z,101350.59
2023-05-21T00:12:41.913Z,101352.50
2023-05-21T00:15:11.507Z,101358.19
2023-05-21T00:17:40.420Z,101342.00
2023-05-21T00:20:13.103Z,101343.19
2023-05-21T00:22:42.434Z,101346.25
2023-05-21T00:25:11.847Z,101348.41
2023-05-21T00:27:40.843Z,101341.25
2023-05-21T00:30:10.123Z,101334.81
2023-05-21T00:32:38.785Z,101336.53
2023-05-21T00:35:08.489Z,101338.81
2023-05-21T00:37:38.383Z,101334.88
2023-05-21T00:40:09.289Z,101333.41
2023-05-21T00:42:39.927Z,101336.16
2023-05-21T00:45:09.685Z,101329.16
2023-05-21T00:47:39.289Z,101327.72
2023-05-21T00:50:08.984Z,101319.41
2023-05-21T00:52:42.087Z,101322.03
2023-05-21T00:55:11.793Z,101319.44
2023-05-21T00:57:42.585Z,101325.06
2023-05-21T01:00:12.341Z,101331.81
2023-05-21T01:02:41.303Z,101325.75
2023-05-21T01:05:10.972Z,101325.06
2023-05-21T01:07:43.440Z,101325.69
2023-05-21T01:10:13.111Z,101326.25
2023-05-21T01:12:43.928Z,101326.41
2023-05-21T01:15:14.161Z,101319.72
2023-05-21T01:17:42.969Z,101316.13
2023-05-21T01:20:12.975Z,101307.94
2023-05-21T01:22:52.600Z,101316.50
2023-05-21T01:25:21.295Z,101316.63
2023-05-21T01:27:49.987Z,101311.84
2023-05-21T01:30:19.797Z,101314.00
2023-05-21T01:32:56.281Z,101309.91
2023-05-21T01:35:30.845Z,101305.91
2023-05-21T01:38:05.802Z,101305.38
2023-05-21T01:40:41.583Z,101309.47
2023-05-21T01:43:12.174Z,101311.16
2023-05-21T01:45:43.917Z,101313.97
2023-05-21T01:48:13.982Z,101311.91
2023-05-21T01:50:44.915Z,101296.78
2023-05-21T01:53:17.340Z,101299.81
2023-05-21T01:55:46.082Z,101296.91
2023-05-21T01:58:15.836Z,101297.16
2023-05-21T02:00:45.490Z,101289.19
2023-05-21T02:03:16.542Z,101294.00
2023-05-21T02:05:45.898Z,101297.38
2023-05-21T02:08:16.222Z,101298.97
2023-05-21T02:10:44.822Z,101296.34
2023-05-21T02:13:13.465Z,101291.72
2023-05-21T02:15:42.029Z,101293.25
2023-05-21T02:18:11.478Z,101289.59
2023-05-21T02:20:40.151Z,101294.16
2023-05-21T02:23:08.729Z,101286.81
2023-05-21T02:25:38.776Z,101289.94
2023-05-21T02:28:07.864Z,101292.25
2023-05-21T02:30:36.571Z,101288.38
2023-05-21T02:33:05.318Z,101289.75
2023-05-21T02:35:34.233Z,101292.94
2023-05-21T02:38:03.187Z,101295.88
2023-05-21T02:40:33.178Z,101299.41
2023-05-21T02:43:03.138Z,101294.81
2023-05-21T02:45:32.016Z,101292.00
2023-05-21T02:48:00.651Z,101296.94
2023-05-21T02:50:29.331Z,101297.22
2023-05-21T02:52:59.667Z,101285.34
2023-05-21T02:55:28.260Z,101285.56
2023-05-21T02:57:56.817Z,101286.97
2023-05-21T03:00:26.803Z,101276.66
2023-05-21T03:02:55.487Z,101282.44
2023-05-21T03:05:24.476Z,101276.53
2023-05-21T03:07:53.430Z,101276.91
2023-05-21T03:10:22.047Z,101281.47
2023-05-21T03:12:50.913Z,101278.56
2023-05-21T03:15:24.356Z,101282.84
2023-05-21T03:17:55.350Z,101280.84
2023-05-21T03:20:23.979Z,101268.81
2023-05-21T03:22:52.894Z,101271.84
2023-05-21T03:25:21.775Z,101272.34
2023-05-21T03:27:50.362Z,101258.34
2023-05-21T03:30:19.054Z,101271.34
2023-05-21T03:32:49.793Z,101265.91
2023-05-21T03:35:19.982Z,101258.78
2023-05-21T03:37:48.556Z,101270.25
2023-05-21T03:40:17.359Z,101267.84
2023-05-21T03:42:45.976Z,101255.69
2023-05-21T03:45:14.634Z,101259.38
2023-05-21T03:47:43.253Z,101262.28
2023-05-21T03:50:12.416Z,101265.81
2023-05-21T03:52:42.430Z,101269.47
2023-05-21T03:55:11.576Z,101267.25
2023-05-21T03:57:40.162Z,101264.06
2023-05-21T04:00:10.083Z,101263.03
2023-05-21T04:02:38.836Z,101259.66
2023-05-21T04:05:08.214Z,101260.22
2023-05-21T04:07:38.432Z,101264.31
2023-05-21T04:10:09.596Z,101267.75
2023-05-21T04:12:38.144Z,101262.91
2023-05-21T04:15:07.952Z,101267.00
2023-05-21T04:17:36.593Z,101259.66
2023-05-21T04:20:05.626Z,101267.19
2023-05-21T04:22:35.344Z,101280.16
2023-05-21T04:25:04.053Z,101274.53
2023-05-21T04:27:34.610Z,101283.44
2023-05-21T04:30:04.289Z,101272.47
2023-05-21T04:32:33.380Z,101277.91
2023-05-21T04:35:02.170Z,101271.25
2023-05-21T04:37:31.518Z,101268.59
2023-05-21T04:40:01.585Z,101273.66
2023-05-21T04:42:30.502Z,101268.75
2023-05-21T04:45:00.809Z,101272.38
2023-05-21T04:47:30.446Z,101279.25
2023-05-21T04:49:59.555Z,101277.13
2023-05-21T04:52:28.119Z,101281.91
2023-05-21T04:54:57.229Z,101283.59
2023-05-21T04:57:26.076Z,101279.09
2023-05-21T04:59:54.633Z,101279.56
2023-05-21T05:02:24.597Z,101278.56
2023-05-21T05:04:53.167Z,101293.31
2023-05-21T05:07:21.763Z,101284.00
2023-05-21T05:09:50.332Z,101278.53
2023-05-21T05:12:20.682Z,101274.59
2023-05-21T05:14:49.249Z,101277.56
2023-05-21T05:17:18.797Z,101278.25
2023-05-21T05:19:48.704Z,101282.84
2023-05-21T05:22:17.299Z,101278.81
2023-05-21T05:24:45.861Z,101276.75
2023-05-21T05:27:14.456Z,101281.53
2023-05-21T05:29:43.027Z,101279.44
2023-05-21T05:32:11.621Z,101270.19
2023-05-21T05:34:40.221Z,101272.66
2023-05-21T05:37:10.162Z,101271.03
2023-05-21T05:39:38.795Z,101267.00
2023-05-21T05:42:07.638Z,101269.44
2023-05-21T05:44:36.210Z,101268.88
2023-05-21T05:47:09.152Z,101261.63
2023-05-21T05:49:37.793Z,101258.53
2023-05-21T05:52:07.063Z,101260.09
2023-05-21T05:54:37.018Z,101257.91
2023-05-21T05:57:05.935Z,101254.59
2023-05-21T05:59:34.848Z,101263.72
2023-05-21T06:02:03.372Z,101265.72
2023-05-21T06:04:31.951Z,101265.69
2023-05-21T06:07:00.993Z,101261.25
2023-05-21T06:09:29.603Z,101267.06
2023-05-21T06:11:59.549Z,101262.66
2023-05-21T06:14:28.167Z,101274.28
2023-05-21T06:16:56.749Z,101266.59
2023-05-21T06:19:25.449Z,101272.69
2023-05-21T06:21:54.113Z,101274.25
2023-05-21T06:24:22.943Z,101274.38
2023-05-21T06:26:51.804Z,101268.97
2023-05-21T06:29:21.812Z,101269.94
2023-05-21T06:31:50.765Z,101259.69
2023-05-21T06:34:19.332Z,101265.78
2023-05-21T06:36:47.901Z,101267.88
2023-05-21T06:39:16.489Z,101261.72
2023-05-21T06:41:45.090Z,101256.50
2023-05-21T06:44:13.798Z,101252.06
2023-05-21T06:46:43.796Z,101248.56
2023-05-21T06:49:14.437Z,101244.78
2023-05-21T06:51:43.197Z,101235.38
2023-05-21T06:54:11.749Z,101252.13
2023-05-21T06:56:40.306Z,101249.25
2023-05-21T06:59:08.874Z,101243.41
2023-05-21T07:01:37.639Z,101249.06
2023-05-21T07:04:07.720Z,101244.53
2023-05-21T07:06:36.417Z,101249.16
2023-05-21T07:09:05.559Z,101246.50
2023-05-21T07:11:34.381Z,101253.72
2023-05-21T07:14:04.552Z,101247.09
2023-05-21T07:16:33.117Z,101249.88
2023-05-21T07:19:01.819Z,101252.16
2023-05-21T07:21:31.773Z,101253.44
2023-05-21T07:24:00.613Z,101259.88
2023-05-21T07:26:29.218Z,101252.31
2023-05-21T07:28:57.827Z,101261.09
2023-05-21T07:31:26.794Z,101247.91
2023-05-21T07:33:55.446Z,101261.69
2023-05-21T07:36:23.970Z,101260.78
2023-05-21T07:38:54.082Z,101253.19
2023-05-21T07:41:23.155Z,101256.09
2023-05-21T07:43:51.754Z,101254.09
2023-05-21T07:46:20.582Z,101251.56
2023-05-21T07:48:49.961Z,101254.25
2023-05-21T07:51:18.699Z,101240.34
2023-05-21T07:53:47.312Z,101238.72
2023-05-21T07:56:17.261Z,101239.31
2023-05-21T07:58:47.395Z,101244.06
2023-05-21T08:01:16.019Z,101248.28
2023-05-21T08:03:44.787Z,101240.66
2023-05-21T08:06:13.490Z,101248.16
2023-05-21T08:08:42.047Z,101239.06
2023-05-21T08:11:10.715Z,101239.78
2023-05-21T08:13:40.610Z,101241.78
2023-05-21T08:16:09.352Z,101234.25
2023-05-21T08:18:38.019Z,101247.38
2023-05-21T08:21:06.668Z,101251.31
2023-05-21T08:23:35.235Z,101261.00
2023-05-21T08:26:03.828Z,101258.03
2023-05-21T08:28:32.520Z,101259.16
2023-05-21T08:31:02.498Z,101256.59
2023-05-21T08:33:31.147Z,101257.31
2023-05-21T08:36:00.366Z,101262.50
2023-05-21T08:38:30.369Z,101254.38
2023-05-21T08:41:00.200Z,101259.44
2023-05-21T08:43:29.788Z,101256.09
2023-05-21T08:46:01.554Z,101252.63
2023-05-21T08:48:32.943Z,101260.00
2023-05-21T08:51:02.109Z,101255.81
2023-05-21T08:53:30.977Z,101263.59
2023-05-21T08:55:59.800Z,101270.38
2023-05-21T08:58:28.421Z,101264.91
2023-05-21T09:00:57.230Z,101257.16
2023-05-21T09:03:26.919Z,101246.94
2023-05-21T09:05:57.658Z,101248.75
2023-05-21T09:08:32.316Z,101241.78
2023-05-21T09:11:02.490Z,101240.19
2023-05-21T09:13:32.797Z,101240.94
2023-05-21T09:16:01.461Z,101238.06
2023-05-21T09:18:30.056Z,101232.88
2023-05-21T09:21:20.812Z,101224.72
2023-05-21T09:23:53.603Z,101229.47
2023-05-21T09:26:23.626Z,101225.81
2023-05-21T09:28:57.609Z,101225.34
2023-05-21T09:31:27.095Z,101225.56
2023-05-21T09:33:56.569Z,101227.44
2023-05-21T09:36:26.524Z,101226.09
2023-05-21T09:38:55.117Z,101220.63
2023-05-21T09:41:33.683Z,101217.97
2023-05-21T09:44:02.670Z,101233.56
2023-05-21T09:46:41.679Z,101213.16
2023-05-21T09:49:24.893Z,101209.50
2023-05-21T09:51:58.622Z,101213.44
2023-05-21T09:54:32.527Z,101211.63
2023-05-21T09:57:02.675Z,101206.91
2023-05-21T09:59:38.242Z,101210.41
2023-05-21T10:02:18.978Z,101205.13
2023-05-21T10:04:50.545Z,101209.38
2023-05-21T10:07:26.295Z,101209.78
2023-05-21T10:09:57.038Z,101204.50
2023-05-21T10:12:26.354Z,101206.75
2023-05-21T10:15:01.934Z,101196.38
2023-05-21T10:17:31.513Z,101190.25
2023-05-21T10:20:01.766Z,101200.09
2023-05-21T10:22:32.227Z,101195.16
2023-05-21T10:25:03.561Z,101181.22
2023-05-21T10:27:33.319Z,101185.22
2023-05-21T10:30:02.886Z,101174.28
2023-05-21T10:32:32.715Z,101172.94
2023-05-21T10:35:02.402Z,101176.03
2023-05-21T10:37:32.343Z,101169.50
2023-05-21T10:40:00.936Z,101177.88
2023-05-21T10:43:01.479Z,101170.38
2023-05-21T10:45:46.346Z,101162.59
2023-05-21T10:48:28.822Z,101162.56
2023-05-21T10:51:19.684Z,101158.69
2023-05-21T10:54:17.969Z,101168.44
2023-05-21T10:56:55.226Z,101159.88
2023-05-21T10:59:37.561Z,101159.88
2023-05-21T11:02:08.039Z,101157.31
2023-05-21T11:04:40.103Z,101159.94
2023-05-21T11:07:08.892Z,101150.84
2023-05-21T11:09:39.954Z,101149.47
2023-05-21T11:12:09.842Z,101154.31
2023-05-21T11:14:40.435Z,101152.50
2023-05-21T11:17:13.976Z,101144.34
2023-05-21T11:19:43.965Z,101152.47
2023-05-21T11:22:23.455Z,101156.97
2023-05-21T11:24:54.400Z,101154.28
2023-05-21T11:27:34.510Z,101155.25
2023-05-21T11:30:08.131Z,101149.09
2023-05-21T11:32:40.252Z,101140.44
2023-05-21T11:35:09.939Z,101140.75
2023-05-21T11:37:41.725Z,101135.66
2023-05-21T11:40:26.803Z,101135.13
2023-05-21T11:42:56.741Z,101138.44
2023-05-21T11:45:29.650Z,101145.84
2023-05-21T11:47:58.600Z,101146.25
2023-05-21T11:50:30.622Z,101132.63
2023-05-21T11:53:00.925Z,101150.03
2023-05-21T11:55:32.060Z,101144.06
2023-05-21T11:58:01.739Z,101144.91
2023-05-21T12:00:30.299Z,101133.16
2023-05-21T12:02:59.442Z,101136.63
2023-05-21T12:05:28.236Z,101136.09
2023-05-21T12:07:58.469Z,101141.72
2023-05-21T12:10:27.057Z,101135.03
2023-05-21T12:12:57.684Z,101133.81
2023-05-21T12:15:28.077Z,101132.09
2023-05-21T12:17:57.960Z,101118.84
2023-05-21T12:20:29.050Z,101120.50
2023-05-21T12:23:00.638Z,101109.22
2023-05-21T12:25:30.511Z,101105.63
2023-05-21T12:28:00.590Z,101110.97
2023-05-21T12:30:30.853Z,101101.88
2023-05-21T12:33:02.061Z,101120.19
2023-05-21T12:35:32.676Z,101113.53
2023-05-21T12:38:03.444Z,101112.00
2023-05-21T12:40:39.424Z,101116.41
2023-05-21T12:43:09.977Z,101104.63
2023-05-21T12:45:40.769Z,101106.13
2023-05-21T12:48:09.964Z,101102.72
2023-05-21T12:50:41.801Z,101092.13
2023-05-21T12:53:12.383Z,101094.63
2023-05-21T12:55:41.497Z,101089.31
2023-05-21T12:58:15.360Z,101092.16
2023-05-21T13:00:45.496Z,101096.00
2023-05-21T13:03:14.519Z,101098.56
2023-05-21T13:05:43.222Z,101094.56
2023-05-21T13:08:14.163Z,101095.84
2023-05-21T13:10:42.842Z,101090.31
2023-05-21T13:13:12.837Z,101089.47
2023-05-21T13:15:41.492Z,101081.69
2023-05-21T13:18:10.211Z,101085.56
2023-05-21T13:20:39.292Z,101084.94
2023-05-21T13:23:10.577Z,101083.91
2023-05-21T13:25:40.197Z,101084.13
2023-05-21T13:28:10.456Z,101078.59
2023-05-21T13:30:40.512Z,101072.19
2023-05-21T13:33:09.232Z,101079.09
2023-05-21T13:35:38.058Z,101089.00
2023-05-21T13:38:06.653Z,101081.25
2023-05-21T13:40:38.121Z,101072.91
2023-05-21T13:43:07.544Z,101076.66
2023-05-21T13:45:36.238Z,101077.47
2023-05-21T13:48:06.940Z,101076.34
2023-05-21T13:50:35.776Z,101081.81
2023-05-21T13:53:04.608Z,101075.72
2023-05-21T13:55:33.179Z,101086.59
2023-05-21T13:58:01.745Z,101075.72
2023-05-21T14:00:30.345Z,101069.31
2023-05-21T14:02:59.013Z,101075.13
2023-05-21T14:05:29.116Z,101074.09
2023-05-21T14:07:57.691Z,101081.78
2023-05-21T14:10:26.449Z,101072.31
2023-05-21T14:13:01.530Z,101077.44
2023-05-21T14:15:37.098Z,101073.88
2023-05-21T14:18:08.039Z,101079.94
2023-05-21T14:20:38.012Z,101071.22
2023-05-21T14:23:06.622Z,101069.56
2023-05-21T14:25:35.318Z,101068.22
2023-05-21T14:28:04.084Z,101064.25
2023-05-21T14:30:32.633Z,101073.84
2023-05-21T14:33:01.296Z,101076.78
2023-05-21T14:35:29.927Z,101073.16
2023-05-21T14:37:59.896Z,101066.28
2023-05-21T14:40:28.457Z,101068.66
2023-05-21T14:42:57.016Z,101070.19
2023-05-21T14:45:25.572Z,101078.16
2023-05-21T14:47:54.209Z,101077.31
2023-05-21T14:50:22.860Z,101082.34
2023-05-21T14:52:51.433Z,101075.97
2023-05-21T14:55:22.494Z,101071.47
2023-05-21T14:57:51.307Z,101065.88
2023-05-21T15:00:19.988Z,101058.84
2023-05-21T15:02:48.845Z,101070.13
2023-05-21T15:05:17.574Z,101067.75
2023-05-21T15:07:46.249Z,101060.44
2023-05-21T15:10:17.205Z,101048.50
2023-05-21T15:12:48.491Z,101052.19
2023-05-21T15:15:17.923Z,101050.91
2023-05-21T15:17:46.549Z,101046.38
2023-05-21T15:20:15.539Z,101046.78
2023-05-21T15:22:44.207Z,101044.88
2023-05-21T15:25:12.809Z,101049.09
2023-05-21T15:27:41.407Z,101042.13
2023-05-21T15:30:12.063Z,101041.91
2023-05-21T15:32:40.667Z,101037.97
2023-05-21T15:35:09.887Z,101033.72
2023-05-21T15:37:38.480Z,101023.00
2023-05-21T15:40:08.828Z,101035.91
2023-05-21T15:42:37.430Z,101030.28
2023-05-21T15:45:06.658Z,101029.22
2023-05-21T15:47:37.184Z,101020.13
2023-05-21T15:50:06.190Z,101016.50
2023-05-21T15:52:34.769Z,101020.69
2023-05-21T15:55:03.318Z,101007.91
2023-05-21T15:57:32.303Z,101021.03
2023-05-21T16:00:00.923Z,101006.72
2023-05-21T16:02:29.553Z,101008.19
2023-05-21T16:04:59.498Z,101020.50
2023-05-21T16:07:28.083Z,101022.69
2023-05-21T16:09:56.628Z,101016.66
2023-05-21T16:12:25.189Z,101021.09
2023-05-21T16:14:53.751Z,101019.28
2023-05-21T16:17:22.313Z,101015.31
2023-05-21T16:19:51.127Z,101022.44
2023-05-21T16:22:22.090Z,101025.34
2023-05-21T16:24:50.667Z,101023.25
2023-05-21T16:27:19.270Z,101014.25
2023-05-21T16:29:47.892Z,101023.03
2023-05-21T16:32:16.493Z,101015.31
2023-05-21T16:34:45.114Z,101011.66
2023-05-21T16:37:13.649Z,101013.41
2023-05-21T16:39:43.598Z,101010.25
2023-05-21T16:42:12.133Z,101007.34
2023-05-21T16:44:40.862Z,101007.69
2023-05-21T16:47:09.448Z,101001.56
2023-05-21T16:49:38.004Z,100996.28
2023-05-21T16:52:07.039Z,100997.00
2023-05-21T16:54:35.761Z,101001.75
2023-05-21T16:57:05.822Z,100994.06
2023-05-21T16:59:34.395Z,101001.22
2023-05-21T17:02:03.434Z,100994.66
2023-05-21T17:04:32.027Z,101003.97
2023-05-21T17:07:01.513Z,101013.63
2023-05-21T17:09:30.048Z,101006.81
2023-05-21T17:11:58.673Z,101000.72
2023-05-21T17:17:00.725Z,101015.19
2023-05-21T17:19:29.567Z,101011.97
2023-05-21T17:21:58.375Z,101023.88
2023-05-21T17:24:27.030Z,101022.22
2023-05-21T17:26:55.758Z,101022.03
2023-05-21T17:29:24.320Z,101020.19
2023-05-21T17:31:54.291Z,101019.38
2023-05-21T17:34:24.621Z,101015.22
2023-05-21T17:36:54.751Z,101011.38
2023-05-21T17:39:23.731Z,101016.81
2023-05-21T17:41:52.791Z,101020.72
2023-05-21T17:44:21.678Z,101017.63
2023-05-21T17:46:52.016Z,101029.50
2023-05-21T17:49:22.387Z,101019.91
2023-05-21T17:51:51.090Z,101025.75
2023-05-21T17:54:20.007Z,101023.00
2023-05-21T17:56:48.600Z,101031.56
2023-05-21T17:59:17.306Z,101027.94
2023-05-21T18:01:45.864Z,101030.13
2023-05-21T18:04:14.490Z,101025.13
2023-05-21T18:06:44.803Z,101023.25
2023-05-21T18:09:15.213Z,101026.91
2023-05-21T18:11:45.062Z,101021.56
2023-05-21T18:14:13.707Z,101021.16
2023-05-21T18:16:42.470Z,101022.66
2023-05-21T18:19:11.292Z,101032.63
2023-05-21T18:21:39.999Z,101029.59
2023-05-21T18:24:10.265Z,101022.38
2023-05-21T18:26:38.826Z,101025.66
2023-05-21T18:29:07.395Z,101026.97
2023-05-21T18:31:36.030Z,101027.50
2023-05-21T18:34:04.649Z,101024.28
2023-05-21T18:36:38.568Z,101016.97
2023-05-21T18:39:09.867Z,101020.06
2023-05-21T18:41:39.883Z,101018.44
2023-05-21T18:44:08.420Z,101017.59
2023-05-21T18:46:37.715Z,101020.16
2023-05-21T18:49:07.050Z,101014.34
2023-05-21T18:51:35.691Z,101011.44
2023-05-21T18:54:04.331Z,101017.16
2023-05-21T18:56:34.271Z,101022.25
2023-05-21T18:59:02.804Z,101025.44
2023-05-21T19:01:31.554Z,101031.09
2023-05-21T19:04:00.200Z,101025.72
2023-05-21T19:06:28.786Z,101033.25
2023-05-21T19:08:57.440Z,101045.47
2023-05-21T19:11:30.930Z,101049.44
2023-05-21T19:14:01.152Z,101053.53
2023-05-21T19:16:29.795Z,101062.94
2023-05-21T19:18:58.938Z,101061.94
2023-05-21T19:21:27.569Z,101070.06
2023-05-21T19:23:56.122Z,101056.03
2023-05-21T19:26:24.957Z,101053.59
2023-05-21T19:28:54.677Z,101050.94
2023-05-21T19:31:25.383Z,101059.31
2023-05-21T19:33:54.181Z,101057.34
2023-05-21T19:36:23.282Z,101072.16
2023-05-21T19:38:52.490Z,101080.81
2023-05-21T19:41:22.736Z,101073.06
2023-05-21T19:43:51.385Z,101061.06
2023-05-21T19:46:20.579Z,101057.34
2023-05-21T19:48:51.559Z,101063.16
2023-05-21T19:51:20.095Z,101065.00
2023-05-21T19:53:48.681Z,101070.38
2023-05-21T19:56:17.696Z,101060.59
2023-05-21T19:58:48.039Z,101065.31
2023-05-21T20:01:17.863Z,101068.25
2023-05-21T20:03:46.602Z,101077.66
2023-05-21T20:06:19.084Z,101080.63
2023-05-21T20:08:48.081Z,101087.56
2023-05-21T20:11:16.824Z,101079.97
2023-05-21T20:13:49.999Z,101071.03
2023-05-21T20:16:20.059Z,101073.97
2023-05-21T20:18:48.986Z,101079.09
2023-05-21T20:21:20.191Z,101070.97
2023-05-21T20:23:48.766Z,101068.13
2023-05-21T20:26:18.874Z,101071.63
2023-05-21T20:28:47.469Z,101073.06
2023-05-21T20:31:16.252Z,101068.19
2023-05-21T20:33:44.832Z,101085.72
2023-05-21T20:36:15.199Z,101090.66
2023-05-21T20:38:45.724Z,101095.47
2023-05-21T20:41:14.435Z,101087.47
2023-05-21T20:43:45.856Z,101082.97
2023-05-21T20:46:17.749Z,101067.94
2023-05-21T20:48:47.348Z,101049.16
2023-05-21T20:51:15.989Z,101042.44
2023-05-21T20:53:45.953Z,101031.34
2023-05-21T20:56:14.878Z,101023.34
2023-05-21T20:58:43.542Z,101023.78
2023-05-21T21:01:14.476Z,101014.19
2023-05-21T21:03:45.711Z,101027.84
2023-05-21T21:06:14.491Z,101035.16
2023-05-21T21:08:46.169Z,101032.63
2023-05-21T21:11:16.095Z,101038.69
2023-05-21T21:13:44.702Z,101034.50
2023-05-21T21:16:13.253Z,101034.63
2023-05-21T21:18:41.842Z,101029.28
2023-05-21T21:21:10.441Z,101030.94
2023-05-21T21:23:38.983Z,101036.56
2023-05-21T21:26:07.670Z,101048.22
2023-05-21T21:28:37.571Z,101036.84
2023-05-21T21:31:06.226Z,101044.78
2023-05-21T21:33:34.831Z,101042.97
2023-05-21T21:36:03.448Z,101038.50
2023-05-21T21:38:32.014Z,101042.09
2023-05-21T21:41:00.568Z,101046.88
2023-05-21T21:43:29.123Z,101045.63
2023-05-21T21:45:59.078Z,101040.84
2023-05-21T21:48:27.613Z,101039.22
2023-05-21T21:50:56.823Z,101034.72
2023-05-21T21:53:25.361Z,101032.66
2023-05-21T21:55:55.152Z,101037.06
2023-05-21T21:58:23.741Z,101048.72
2023-05-21T22:00:52.363Z,101037.03
2023-05-21T22:03:22.293Z,101041.25
2023-05-21T22:05:51.635Z,101043.59
2023-05-21T22:08:20.158Z,101051.25
2023-05-21T22:10:48.832Z,101057.00
2023-05-21T22:13:17.544Z,101057.22
2023-05-21T22:15:46.100Z,101059.00
2023-05-21T22:18:18.444Z,101067.66
2023-05-21T22:20:52.562Z,101072.50
2023-05-21T22:23:21.193Z,101083.53
2023-05-21T22:25:49.774Z,101082.09
2023-05-21T22:28:18.397Z,101082.59
2023-05-21T22:30:47.105Z,101074.88
2023-05-21T22:33:16.000Z,101074.50
2023-05-21T22:35:44.595Z,101066.59
2023-05-21T22:38:14.503Z,101064.97
2023-05-21T22:40:43.037Z,101057.34
2023-05-21T22:43:11.651Z,101045.31
2023-05-21T22:45:40.660Z,101036.16
2023-05-21T22:48:10.185Z,101033.22
2023-05-21T22:50:39.435Z,101020.03
2023-05-21T22:53:08.304Z,101025.78
2023-05-21T22:55:38.224Z,101020.44
2023-05-21T22:58:06.802Z,101035.28
2023-05-21T23:00:35.513Z,101027.44
2023-05-21T23:03:04.298Z,101026.72
2023-05-21T23:05:32.922Z,101016.00
2023-05-21T23:08:01.505Z,101013.53
2023-05-21T23:10:30.081Z,101013.38
2023-05-21T23:13:00.038Z,101009.47
2023-05-21T23:15:29.582Z,101002.16
2023-05-21T23:17:58.206Z,101008.25
2023-05-21T23:20:27.886Z,101003.25
2023-05-21T23:22:56.434Z,101002.06
2023-05-21T23:25:25.006Z,101003.53
2023-05-21T23:27:53.609Z,101002.09
2023-05-21T23:30:23.516Z,101006.56
2023-05-21T23:32:52.762Z,101000.06
2023-05-21T23:35:21.665Z,101001.16
2023-05-21T23:37:50.230Z,101009.59
2023-05-21T23:40:18.932Z,100994.53
2023-05-21T23:42:47.500Z,101006.19
2023-05-21T23:45:17.915Z,100996.25
2023-05-21T23:47:47.953Z,101005.72
2023-05-21T23:50:16.750Z,100996.44
2023-05-21T23:52:45.415Z,100994.41
2023-05-21T23:55:14.922Z,100992.00
2023-05-21T23:57:43.556Z,100986.00
